sensor_id;sensor_type;location;lat;lon;timestamp;P1;durP1;ratioP1;P2;durP2;ratioP2
21800;SDS011;11062;51.164;16.924;2023-12-04T00:00:37;168.85;;;70.82;;
21800;SDS011;11062;51.164;16.924;2023-12-04T00:03:03;150.25;;;58.78;;
21800;SDS011;11062;51.164;16.924;2023-12-04T00:05:29;154.90;;;61.88;;
21800;SDS011;11062;51.164;16.924;2023-12-04T00:07:55;161.27;;;61.63;;
21800;SDS011;11062;51.164;16.924;2023-12-04T00:10:20;155.15;;;67.78;;
21800;SDS011;11062;51.164;16.924;2023-12-04T00:12:46;136.57;;;53.90;;
21800;SDS011;11062;51.164;16.924;2023-12-04T00:15:12;130.30;;;52.38;;
21800;SDS011;11062;51.164;16.924;2023-12-04T00:17:38;127.50;;;48.15;;
21800;SDS011;11062;51.164;16.924;2023-12-04T00:20:08;139.13;;;56.35;;
21800;SDS011;11062;51.164;16.924;2023-12-04T00:22:34;131.32;;;52.40;;
21800;SDS011;11062;51.164;16.924;2023-12-04T00:25:01;126.60;;;37.42;;
21800;SDS011;11062;51.164;16.924;2023-12-04T00:27:28;108.30;;;36.10;;
21800;SDS011;11062;51.164;16.924;2023-12-04T00:29:54;135.48;;;37.97;;
21800;SDS011;11062;51.164;16.924;2023-12-04T00:32:21;113.22;;;39.92;;
21800;SDS011;11062;51.164;16.924;2023-12-04T00:34:47;133.93;;;45.20;;
21800;SDS011;11062;51.164;16.924;2023-12-04T00:37:12;114.20;;;38.97;;
21800;SDS011;11062;51.164;16.924;2023-12-04T00:39:38;113.45;;;35.55;;
21800;SDS011;11062;51.164;16.924;2023-12-04T00:42:04;193.20;;;39.58;;
21800;SDS011;11062;51.164;16.924;2023-12-04T00:44:30;115.70;;;36.08;;
21800;SDS011;11062;51.164;16.924;2023-12-04T00:46:56;113.05;;;35.35;;
21800;SDS011;11062;51.164;16.924;2023-12-04T00:49:22;92.43;;;33.00;;
21800;SDS011;11062;51.164;16.924;2023-12-04T00:51:48;105.18;;;33.22;;
21800;SDS011;11062;51.164;16.924;2023-12-04T00:54:14;96.38;;;31.17;;
21800;SDS011;11062;51.164;16.924;2023-12-04T00:56:40;93.68;;;31.92;;
21800;SDS011;11062;51.164;16.924;2023-12-04T00:59:09;92.25;;;31.00;;
21800;SDS011;11062;51.164;16.924;2023-12-04T01:01:36;90.82;;;32.53;;
21800;SDS011;11062;51.164;16.924;2023-12-04T01:04:02;94.45;;;31.10;;
21800;SDS011;11062;51.164;16.924;2023-12-04T01:06:28;92.85;;;37.25;;
21800;SDS011;11062;51.164;16.924;2023-12-04T01:08:54;126.30;;;44.13;;
21800;SDS011;11062;51.164;16.924;2023-12-04T01:11:21;95.18;;;34.65;;
21800;SDS011;11062;51.164;16.924;2023-12-04T01:13:47;92.32;;;30.17;;
21800;SDS011;11062;51.164;16.924;2023-12-04T01:16:14;100.53;;;30.67;;
21800;SDS011;11062;51.164;16.924;2023-12-04T01:18:40;104.57;;;32.47;;
21800;SDS011;11062;51.164;16.924;2023-12-04T01:21:06;90.65;;;30.75;;
21800;SDS011;11062;51.164;16.924;2023-12-04T01:23:36;84.18;;;31.15;;
21800;SDS011;11062;51.164;16.924;2023-12-04T01:26:02;91.28;;;29.85;;
21800;SDS011;11062;51.164;16.924;2023-12-04T01:28:29;86.07;;;28.77;;
21800;SDS011;11062;51.164;16.924;2023-12-04T01:30:55;83.40;;;28.38;;
21800;SDS011;11062;51.164;16.924;2023-12-04T01:33:20;91.95;;;28.33;;
21800;SDS011;11062;51.164;16.924;2023-12-04T01:35:46;99.40;;;31.38;;
21800;SDS011;11062;51.164;16.924;2023-12-04T01:38:12;85.90;;;27.70;;
21800;SDS011;11062;51.164;16.924;2023-12-04T01:40:38;84.53;;;27.95;;
21800;SDS011;11062;51.164;16.924;2023-12-04T01:43:04;84.75;;;30.48;;
21800;SDS011;11062;51.164;16.924;2023-12-04T01:45:30;63.97;;;30.73;;
21800;SDS011;11062;51.164;16.924;2023-12-04T01:47:56;71.20;;;25.02;;
21800;SDS011;11062;51.164;16.924;2023-12-04T01:50:23;72.13;;;27.55;;
21800;SDS011;11062;51.164;16.924;2023-12-04T01:52:50;63.55;;;25.92;;
21800;SDS011;11062;51.164;16.924;2023-12-04T01:55:18;58.22;;;29.02;;
21800;SDS011;11062;51.164;16.924;2023-12-04T01:57:44;74.85;;;28.15;;
21800;SDS011;11062;51.164;16.924;2023-12-04T02:00:11;73.10;;;27.80;;
21800;SDS011;11062;51.164;16.924;2023-12-04T02:02:38;72.97;;;26.88;;
21800;SDS011;11062;51.164;16.924;2023-12-04T02:05:05;67.57;;;25.23;;
21800;SDS011;11062;51.164;16.924;2023-12-04T02:07:34;73.88;;;27.25;;
21800;SDS011;11062;51.164;16.924;2023-12-04T02:10:02;84.53;;;26.50;;
21800;SDS011;11062;51.164;16.924;2023-12-04T02:12:29;73.57;;;25.48;;
21800;SDS011;11062;51.164;16.924;2023-12-04T02:14:55;65.75;;;24.90;;
21800;SDS011;11062;51.164;16.924;2023-12-04T02:17:22;64.05;;;24.70;;
21800;SDS011;11062;51.164;16.924;2023-12-04T02:19:49;69.13;;;24.85;;
21800;SDS011;11062;51.164;16.924;2023-12-04T02:22:15;66.57;;;23.58;;
21800;SDS011;11062;51.164;16.924;2023-12-04T02:24:44;66.43;;;25.38;;
21800;SDS011;11062;51.164;16.924;2023-12-04T02:27:16;66.13;;;23.25;;
21800;SDS011;11062;51.164;16.924;2023-12-04T02:29:59;66.07;;;24.50;;
21800;SDS011;11062;51.164;16.924;2023-12-04T02:32:28;71.32;;;24.42;;
21800;SDS011;11062;51.164;16.924;2023-12-04T02:34:56;78.15;;;24.10;;
21800;SDS011;11062;51.164;16.924;2023-12-04T02:37:24;86.32;;;23.88;;
21800;SDS011;11062;51.164;16.924;2023-12-04T02:39:51;66.55;;;22.77;;
21800;SDS011;11062;51.164;16.924;2023-12-04T02:42:21;70.53;;;23.52;;
21800;SDS011;11062;51.164;16.924;2023-12-04T02:44:50;76.00;;;23.02;;
21800;SDS011;11062;51.164;16.924;2023-12-04T02:47:15;78.25;;;23.67;;
21800;SDS011;11062;51.164;16.924;2023-12-04T02:49:42;73.15;;;22.70;;
21800;SDS011;11062;51.164;16.924;2023-12-04T02:52:07;73.38;;;22.08;;
21800;SDS011;11062;51.164;16.924;2023-12-04T02:54:33;74.05;;;22.20;;
21800;SDS011;11062;51.164;16.924;2023-12-04T02:56:59;51.63;;;20.48;;
21800;SDS011;11062;51.164;16.924;2023-12-04T02:59:25;70.40;;;22.80;;
21800;SDS011;11062;51.164;16.924;2023-12-04T03:01:50;65.60;;;22.45;;
21800;SDS011;11062;51.164;16.924;2023-12-04T03:04:16;66.25;;;21.45;;
21800;SDS011;11062;51.164;16.924;2023-12-04T03:06:44;61.17;;;21.38;;
21800;SDS011;11062;51.164;16.924;2023-12-04T03:09:10;51.97;;;21.33;;
21800;SDS011;11062;51.164;16.924;2023-12-04T03:11:39;53.08;;;21.25;;
21800;SDS011;11062;51.164;16.924;2023-12-04T03:14:05;48.95;;;20.30;;
21800;SDS011;11062;51.164;16.924;2023-12-04T03:16:34;54.95;;;21.20;;
21800;SDS011;11062;51.164;16.924;2023-12-04T03:19:01;49.38;;;20.63;;
21800;SDS011;11062;51.164;16.924;2023-12-04T03:21:29;63.47;;;21.02;;
21800;SDS011;11062;51.164;16.924;2023-12-04T03:23:55;59.50;;;19.92;;
21800;SDS011;11062;51.164;16.924;2023-12-04T03:26:21;61.70;;;22.05;;
21800;SDS011;11062;51.164;16.924;2023-12-04T03:28:47;48.63;;;19.15;;
21800;SDS011;11062;51.164;16.924;2023-12-04T03:31:13;57.25;;;19.45;;
21800;SDS011;11062;51.164;16.924;2023-12-04T03:33:39;57.17;;;19.70;;
21800;SDS011;11062;51.164;16.924;2023-12-04T03:36:05;58.03;;;20.40;;
21800;SDS011;11062;51.164;16.924;2023-12-04T03:38:34;56.05;;;19.08;;
21800;SDS011;11062;51.164;16.924;2023-12-04T03:41:00;45.80;;;18.88;;
21800;SDS011;11062;51.164;16.924;2023-12-04T03:43:26;40.85;;;17.67;;
21800;SDS011;11062;51.164;16.924;2023-12-04T03:45:51;43.15;;;18.70;;
21800;SDS011;11062;51.164;16.924;2023-12-04T03:48:20;55.97;;;18.83;;
21800;SDS011;11062;51.164;16.924;2023-12-04T03:50:46;56.55;;;19.00;;
21800;SDS011;11062;51.164;16.924;2023-12-04T03:53:15;47.47;;;18.83;;
21800;SDS011;11062;51.164;16.924;2023-12-04T03:55:43;48.20;;;19.60;;
21800;SDS011;11062;51.164;16.924;2023-12-04T03:58:09;58.38;;;19.70;;
21800;SDS011;11062;51.164;16.924;2023-12-04T04:00:35;54.83;;;19.17;;
21800;SDS011;11062;51.164;16.924;2023-12-04T04:03:01;43.88;;;19.77;;
21800;SDS011;11062;51.164;16.924;2023-12-04T04:05:27;73.57;;;22.08;;
21800;SDS011;11062;51.164;16.924;2023-12-04T04:07:53;61.30;;;20.00;;
21800;SDS011;11062;51.164;16.924;2023-12-04T04:10:19;59.25;;;20.17;;
21800;SDS011;11062;51.164;16.924;2023-12-04T04:12:45;71.75;;;22.08;;
21800;SDS011;11062;51.164;16.924;2023-12-04T04:15:11;64.15;;;22.13;;
21800;SDS011;11062;51.164;16.924;2023-12-04T04:17:36;71.75;;;22.92;;
21800;SDS011;11062;51.164;16.924;2023-12-04T04:20:02;65.85;;;21.33;;
21800;SDS011;11062;51.164;16.924;2023-12-04T04:22:28;68.78;;;20.98;;
21800;SDS011;11062;51.164;16.924;2023-12-04T04:24:55;66.32;;;21.90;;
21800;SDS011;11062;51.164;16.924;2023-12-04T04:27:21;64.78;;;21.38;;
21800;SDS011;11062;51.164;16.924;2023-12-04T04:29:47;64.72;;;23.20;;
21800;SDS011;11062;51.164;16.924;2023-12-04T04:32:13;58.65;;;21.40;;
21800;SDS011;11062;51.164;16.924;2023-12-04T04:34:39;65.03;;;21.60;;
21800;SDS011;11062;51.164;16.924;2023-12-04T04:37:05;58.88;;;21.50;;
21800;SDS011;11062;51.164;16.924;2023-12-04T04:39:31;68.40;;;20.88;;
21800;SDS011;11062;51.164;16.924;2023-12-04T04:41:57;76.00;;;22.27;;
21800;SDS011;11062;51.164;16.924;2023-12-04T04:44:23;70.65;;;22.75;;
21800;SDS011;11062;51.164;16.924;2023-12-04T04:46:49;42.88;;;19.73;;
21800;SDS011;11062;51.164;16.924;2023-12-04T04:49:18;65.47;;;22.95;;
21800;SDS011;11062;51.164;16.924;2023-12-04T04:51:44;63.40;;;21.92;;
21800;SDS011;11062;51.164;16.924;2023-12-04T04:54:13;53.03;;;22.10;;
21800;SDS011;11062;51.164;16.924;2023-12-04T04:56:41;59.17;;;21.08;;
21800;SDS011;11062;51.164;16.924;2023-12-04T04:59:07;48.50;;;21.58;;
21800;SDS011;11062;51.164;16.924;2023-12-04T05:01:33;51.38;;;21.17;;
21800;SDS011;11062;51.164;16.924;2023-12-04T05:04:02;52.30;;;19.70;;
21800;SDS011;11062;51.164;16.924;2023-12-04T05:06:28;56.25;;;21.92;;
21800;SDS011;11062;51.164;16.924;2023-12-04T05:08:54;48.03;;;20.40;;
21800;SDS011;11062;51.164;16.924;2023-12-04T05:11:21;61.00;;;22.73;;
21800;SDS011;11062;51.164;16.924;2023-12-04T05:13:49;56.70;;;22.40;;
21800;SDS011;11062;51.164;16.924;2023-12-04T05:16:15;69.45;;;23.77;;
21800;SDS011;11062;51.164;16.924;2023-12-04T05:18:41;63.10;;;21.85;;
21800;SDS011;11062;51.164;16.924;2023-12-04T05:21:08;72.65;;;22.92;;
21800;SDS011;11062;51.164;16.924;2023-12-04T05:23:34;47.50;;;21.20;;
21800;SDS011;11062;51.164;16.924;2023-12-04T05:26:04;46.40;;;21.33;;
21800;SDS011;11062;51.164;16.924;2023-12-04T05:28:31;52.20;;;22.38;;
21800;SDS011;11062;51.164;16.924;2023-12-04T05:30:57;55.58;;;21.42;;
21800;SDS011;11062;51.164;16.924;2023-12-04T05:33:23;50.05;;;21.63;;
21800;SDS011;11062;51.164;16.924;2023-12-04T05:35:49;52.38;;;20.52;;
21800;SDS011;11062;51.164;16.924;2023-12-04T05:38:17;66.75;;;23.90;;
21800;SDS011;11062;51.164;16.924;2023-12-04T05:40:43;77.47;;;23.13;;
21800;SDS011;11062;51.164;16.924;2023-12-04T05:43:12;69.10;;;25.05;;
21800;SDS011;11062;51.164;16.924;2023-12-04T05:45:40;74.10;;;24.90;;
21800;SDS011;11062;51.164;16.924;2023-12-04T05:48:09;59.83;;;22.77;;
21800;SDS011;11062;51.164;16.924;2023-12-04T05:50:38;55.85;;;25.08;;
21800;SDS011;11062;51.164;16.924;2023-12-04T05:53:06;61.75;;;24.90;;
21800;SDS011;11062;51.164;16.924;2023-12-04T05:55:32;66.57;;;26.83;;
21800;SDS011;11062;51.164;16.924;2023-12-04T05:57:58;57.63;;;25.13;;
21800;SDS011;11062;51.164;16.924;2023-12-04T06:00:24;53.20;;;24.50;;
21800;SDS011;11062;51.164;16.924;2023-12-04T06:02:50;61.35;;;26.27;;
21800;SDS011;11062;51.164;16.924;2023-12-04T06:05:16;67.80;;;28.15;;
21800;SDS011;11062;51.164;16.924;2023-12-04T06:07:42;65.70;;;26.98;;
21800;SDS011;11062;51.164;16.924;2023-12-04T06:10:08;68.65;;;26.17;;
21800;SDS011;11062;51.164;16.924;2023-12-04T06:12:36;63.75;;;26.60;;
21800;SDS011;11062;51.164;16.924;2023-12-04T06:18:25;81.25;;;29.42;;
21800;SDS011;11062;51.164;16.924;2023-12-04T06:20:50;98.93;;;28.83;;
21800;SDS011;11062;51.164;16.924;2023-12-04T06:23:16;64.53;;;30.20;;
21800;SDS011;11062;51.164;16.924;2023-12-04T06:25:57;83.13;;;30.00;;
21800;SDS011;11062;51.164;16.924;2023-12-04T06:28:35;71.55;;;29.30;;
21800;SDS011;11062;51.164;16.924;2023-12-04T06:32:05;61.33;;;24.55;;
21800;SDS011;11062;51.164;16.924;2023-12-04T06:35:03;62.33;;;26.65;;
21800;SDS011;11062;51.164;16.924;2023-12-04T06:38:03;71.60;;;27.38;;
21800;SDS011;11062;51.164;16.924;2023-12-04T06:49:12;76.40;;;27.35;;
21800;SDS011;11062;51.164;16.924;2023-12-04T06:52:23;76.78;;;27.92;;
21800;SDS011;11062;51.164;16.924;2023-12-04T06:55:25;64.90;;;27.35;;
21800;SDS011;11062;51.164;16.924;2023-12-04T06:58:57;67.88;;;27.48;;
21800;SDS011;11062;51.164;16.924;2023-12-04T07:01:49;70.93;;;28.35;;
21800;SDS011;11062;51.164;16.924;2023-12-04T07:04:18;65.95;;;26.75;;
21800;SDS011;11062;51.164;16.924;2023-12-04T07:06:48;68.00;;;27.60;;
21800;SDS011;11062;51.164;16.924;2023-12-04T07:09:25;92.20;;;26.98;;
21800;SDS011;11062;51.164;16.924;2023-12-04T07:11:54;62.53;;;26.63;;
21800;SDS011;11062;51.164;16.924;2023-12-04T07:14:23;63.28;;;26.30;;
21800;SDS011;11062;51.164;16.924;2023-12-04T07:16:48;58.67;;;26.30;;
21800;SDS011;11062;51.164;16.924;2023-12-04T07:19:14;72.65;;;26.95;;
21800;SDS011;11062;51.164;16.924;2023-12-04T07:21:41;64.10;;;27.00;;
21800;SDS011;11062;51.164;16.924;2023-12-04T07:24:10;68.72;;;27.77;;
21800;SDS011;11062;51.164;16.924;2023-12-04T07:26:35;84.50;;;29.40;;
21800;SDS011;11062;51.164;16.924;2023-12-04T07:29:02;73.22;;;27.42;;
21800;SDS011;11062;51.164;16.924;2023-12-04T07:31:28;75.25;;;27.17;;
21800;SDS011;11062;51.164;16.924;2023-12-04T07:33:54;77.15;;;28.10;;
21800;SDS011;11062;51.164;16.924;2023-12-04T07:36:21;75.13;;;27.67;;
21800;SDS011;11062;51.164;16.924;2023-12-04T07:38:49;69.57;;;27.63;;
21800;SDS011;11062;51.164;16.924;2023-12-04T07:41:19;78.85;;;28.23;;
21800;SDS011;11062;51.164;16.924;2023-12-04T07:43:45;84.60;;;28.48;;
21800;SDS011;11062;51.164;16.924;2023-12-04T07:46:11;55.15;;;25.50;;
21800;SDS011;11062;51.164;16.924;2023-12-04T07:48:38;87.28;;;28.30;;
21800;SDS011;11062;51.164;16.924;2023-12-04T07:51:05;76.07;;;29.15;;
21800;SDS011;11062;51.164;16.924;2023-12-04T07:53:38;79.95;;;27.48;;
21800;SDS011;11062;51.164;16.924;2023-12-04T07:56:12;63.47;;;27.67;;
21800;SDS011;11062;51.164;16.924;2023-12-04T07:58:39;80.60;;;27.88;;
21800;SDS011;11062;51.164;16.924;2023-12-04T08:01:07;84.97;;;28.05;;
21800;SDS011;11062;51.164;16.924;2023-12-04T08:03:33;64.90;;;27.80;;
21800;SDS011;11062;51.164;16.924;2023-12-04T08:05:59;72.82;;;29.40;;
21800;SDS011;11062;51.164;16.924;2023-12-04T08:08:28;69.22;;;28.63;;
21800;SDS011;11062;51.164;16.924;2023-12-04T08:10:54;81.65;;;30.00;;
21800;SDS011;11062;51.164;16.924;2023-12-04T08:13:23;69.95;;;30.33;;
21800;SDS011;11062;51.164;16.924;2023-12-04T08:15:51;68.82;;;29.58;;
21800;SDS011;11062;51.164;16.924;2023-12-04T08:18:17;75.55;;;29.27;;
21800;SDS011;11062;51.164;16.924;2023-12-04T08:20:43;70.85;;;28.83;;
21800;SDS011;11062;51.164;16.924;2023-12-04T08:23:09;75.22;;;30.60;;
21800;SDS011;11062;51.164;16.924;2023-12-04T08:25:35;81.63;;;30.13;;
21800;SDS011;11062;51.164;16.924;2023-12-04T08:28:03;74.30;;;29.80;;
21800;SDS011;11062;51.164;16.924;2023-12-04T08:30:30;63.92;;;28.73;;
21800;SDS011;11062;51.164;16.924;2023-12-04T08:32:56;70.80;;;29.98;;
21800;SDS011;11062;51.164;16.924;2023-12-04T08:35:22;60.60;;;28.65;;
21800;SDS011;11062;51.164;16.924;2023-12-04T08:37:50;68.47;;;28.85;;
21800;SDS011;11062;51.164;16.924;2023-12-04T08:40:22;76.35;;;30.75;;
21800;SDS011;11062;51.164;16.924;2023-12-04T08:42:51;70.85;;;30.40;;
21800;SDS011;11062;51.164;16.924;2023-12-04T08:45:17;69.93;;;29.48;;
21800;SDS011;11062;51.164;16.924;2023-12-04T08:47:43;67.10;;;29.52;;
21800;SDS011;11062;51.164;16.924;2023-12-04T08:50:15;71.43;;;29.75;;
21800;SDS011;11062;51.164;16.924;2023-12-04T08:52:46;69.90;;;31.05;;
21800;SDS011;11062;51.164;16.924;2023-12-04T08:55:12;85.85;;;33.13;;
21800;SDS011;11062;51.164;16.924;2023-12-04T08:57:38;80.07;;;32.97;;
21800;SDS011;11062;51.164;16.924;2023-12-04T09:00:04;78.93;;;31.85;;
21800;SDS011;11062;51.164;16.924;2023-12-04T09:02:30;78.45;;;32.85;;
21800;SDS011;11062;51.164;16.924;2023-12-04T09:04:56;90.00;;;33.50;;
21800;SDS011;11062;51.164;16.924;2023-12-04T09:07:25;82.15;;;32.15;;
21800;SDS011;11062;51.164;16.924;2023-12-04T09:09:53;64.28;;;28.77;;
21800;SDS011;11062;51.164;16.924;2023-12-04T09:12:22;68.45;;;30.20;;
21800;SDS011;11062;51.164;16.924;2023-12-04T09:14:48;68.63;;;30.30;;
21800;SDS011;11062;51.164;16.924;2023-12-04T09:17:14;74.10;;;31.17;;
21800;SDS011;11062;51.164;16.924;2023-12-04T09:19:42;86.13;;;30.58;;
21800;SDS011;11062;51.164;16.924;2023-12-04T09:22:10;68.03;;;30.00;;
21800;SDS011;11062;51.164;16.924;2023-12-04T09:24:36;67.85;;;30.90;;
21800;SDS011;11062;51.164;16.924;2023-12-04T09:27:02;74.60;;;32.10;;
21800;SDS011;11062;51.164;16.924;2023-12-04T09:29:28;83.78;;;29.77;;
21800;SDS011;11062;51.164;16.924;2023-12-04T09:31:54;63.70;;;27.58;;
21800;SDS011;11062;51.164;16.924;2023-12-04T09:34:23;54.45;;;24.27;;
21800;SDS011;11062;51.164;16.924;2023-12-04T09:36:55;45.28;;;20.52;;
21800;SDS011;11062;51.164;16.924;2023-12-04T09:39:25;47.30;;;21.35;;
21800;SDS011;11062;51.164;16.924;2023-12-04T09:41:53;43.17;;;21.00;;
21800;SDS011;11062;51.164;16.924;2023-12-04T09:44:23;40.22;;;19.48;;
21800;SDS011;11062;51.164;16.924;2023-12-04T09:46:55;43.33;;;19.40;;
21800;SDS011;11062;51.164;16.924;2023-12-04T09:49:24;41.25;;;18.85;;
21800;SDS011;11062;51.164;16.924;2023-12-04T09:51:58;41.13;;;18.42;;
21800;SDS011;11062;51.164;16.924;2023-12-04T09:54:46;38.30;;;17.17;;
21800;SDS011;11062;51.164;16.924;2023-12-04T09:57:22;37.67;;;16.17;;
21800;SDS011;11062;51.164;16.924;2023-12-04T10:02:20;42.45;;;17.08;;
21800;SDS011;11062;51.164;16.924;2023-12-04T10:04:48;43.08;;;17.77;;
21800;SDS011;11062;51.164;16.924;2023-12-04T10:07:14;37.75;;;17.08;;
21800;SDS011;11062;51.164;16.924;2023-12-04T10:09:41;47.20;;;18.00;;
21800;SDS011;11062;51.164;16.924;2023-12-04T10:12:13;43.90;;;18.42;;
21800;SDS011;11062;51.164;16.924;2023-12-04T10:15:02;37.80;;;16.85;;
21800;SDS011;11062;51.164;16.924;2023-12-04T10:17:38;43.00;;;17.42;;
21800;SDS011;11062;51.164;16.924;2023-12-04T10:20:06;43.28;;;18.85;;
21800;SDS011;11062;51.164;16.924;2023-12-04T10:25:27;51.53;;;17.85;;
21800;SDS011;11062;51.164;16.924;2023-12-04T10:28:11;35.13;;;15.25;;
21800;SDS011;11062;51.164;16.924;2023-12-04T10:30:38;38.47;;;16.75;;
21800;SDS011;11062;51.164;16.924;2023-12-04T10:33:05;38.67;;;15.00;;
21800;SDS011;11062;51.164;16.924;2023-12-04T10:35:35;50.78;;;18.45;;
21800;SDS011;11062;51.164;16.924;2023-12-04T10:38:01;41.03;;;17.27;;
21800;SDS011;11062;51.164;16.924;2023-12-04T10:40:29;40.80;;;16.17;;
21800;SDS011;11062;51.164;16.924;2023-12-04T10:45:34;42.42;;;15.35;;
21800;SDS011;11062;51.164;16.924;2023-12-04T10:48:04;47.00;;;16.42;;
21800;SDS011;11062;51.164;16.924;2023-12-04T10:50:36;60.88;;;16.52;;
21800;SDS011;11062;51.164;16.924;2023-12-04T10:53:06;52.38;;;16.80;;
21800;SDS011;11062;51.164;16.924;2023-12-04T10:55:32;33.83;;;14.00;;
21800;SDS011;11062;51.164;16.924;2023-12-04T10:58:06;35.92;;;16.13;;
21800;SDS011;11062;51.164;16.924;2023-12-04T11:00:34;32.97;;;15.65;;
21800;SDS011;11062;51.164;16.924;2023-12-04T11:03:09;40.92;;;16.00;;
21800;SDS011;11062;51.164;16.924;2023-12-04T11:08:05;40.45;;;16.00;;
21800;SDS011;11062;51.164;16.924;2023-12-04T11:10:48;34.15;;;15.38;;
21800;SDS011;11062;51.164;16.924;2023-12-04T11:13:23;40.88;;;15.85;;
21800;SDS011;11062;51.164;16.924;2023-12-04T11:15:55;47.70;;;17.02;;
21800;SDS011;11062;51.164;16.924;2023-12-04T11:18:25;32.17;;;14.82;;
21800;SDS011;11062;51.164;16.924;2023-12-04T11:20:57;33.78;;;15.80;;
21800;SDS011;11062;51.164;16.924;2023-12-04T11:23:32;43.53;;;17.83;;
21800;SDS011;11062;51.164;16.924;2023-12-04T11:26:02;41.95;;;16.13;;
21800;SDS011;11062;51.164;16.924;2023-12-04T11:28:30;44.15;;;16.83;;
21800;SDS011;11062;51.164;16.924;2023-12-04T11:31:02;29.60;;;15.02;;
21800;SDS011;11062;51.164;16.924;2023-12-04T11:33:28;33.80;;;15.30;;
21800;SDS011;11062;51.164;16.924;2023-12-04T11:36:09;28.20;;;12.75;;
21800;SDS011;11062;51.164;16.924;2023-12-04T11:38:46;57.55;;;16.63;;
21800;SDS011;11062;51.164;16.924;2023-12-04T11:41:24;39.83;;;15.35;;
21800;SDS011;11062;51.164;16.924;2023-12-04T11:43:57;41.67;;;16.48;;
21800;SDS011;11062;51.164;16.924;2023-12-04T11:46:26;31.20;;;13.43;;
21800;SDS011;11062;51.164;16.924;2023-12-04T11:51:59;35.03;;;15.13;;
21800;SDS011;11062;51.164;16.924;2023-12-04T11:54:27;36.70;;;15.18;;
21800;SDS011;11062;51.164;16.924;2023-12-04T11:59:36;37.65;;;17.35;;
21800;SDS011;11062;51.164;16.924;2023-12-04T12:02:03;38.22;;;16.90;;
21800;SDS011;11062;51.164;16.924;2023-12-04T12:04:33;36.95;;;17.00;;
21800;SDS011;11062;51.164;16.924;2023-12-04T12:07:00;30.05;;;15.93;;
21800;SDS011;11062;51.164;16.924;2023-12-04T12:09:27;36.47;;;16.27;;
21800;SDS011;11062;51.164;16.924;2023-12-04T12:11:54;35.20;;;15.80;;
21800;SDS011;11062;51.164;16.924;2023-12-04T12:14:23;37.40;;;16.90;;
21800;SDS011;11062;51.164;16.924;2023-12-04T12:16:54;30.52;;;16.13;;
21800;SDS011;11062;51.164;16.924;2023-12-04T12:19:20;35.20;;;15.75;;
21800;SDS011;11062;51.164;16.924;2023-12-04T12:21:49;29.23;;;15.57;;
21800;SDS011;11062;51.164;16.924;2023-12-04T12:24:19;44.70;;;18.88;;
21800;SDS011;11062;51.164;16.924;2023-12-04T12:26:46;38.53;;;18.17;;
21800;SDS011;11062;51.164;16.924;2023-12-04T12:29:12;35.22;;;16.80;;
21800;SDS011;11062;51.164;16.924;2023-12-04T12:31:38;37.45;;;17.73;;
21800;SDS011;11062;51.164;16.924;2023-12-04T12:34:04;40.40;;;18.20;;
21800;SDS011;11062;51.164;16.924;2023-12-04T12:36:31;39.55;;;18.02;;
21800;SDS011;11062;51.164;16.924;2023-12-04T12:39:00;40.63;;;18.10;;
21800;SDS011;11062;51.164;16.924;2023-12-04T12:41:29;63.97;;;21.00;;
21800;SDS011;11062;51.164;16.924;2023-12-04T12:43:57;37.97;;;18.42;;
21800;SDS011;11062;51.164;16.924;2023-12-04T12:46:25;43.95;;;20.65;;
21800;SDS011;11062;51.164;16.924;2023-12-04T12:48:51;40.53;;;19.83;;
21800;SDS011;11062;51.164;16.924;2023-12-04T12:51:17;36.13;;;19.55;;
21800;SDS011;11062;51.164;16.924;2023-12-04T12:53:46;47.55;;;20.67;;
21800;SDS011;11062;51.164;16.924;2023-12-04T12:56:16;42.13;;;19.00;;
21800;SDS011;11062;51.164;16.924;2023-12-04T12:58:46;39.60;;;19.88;;
21800;SDS011;11062;51.164;16.924;2023-12-04T13:01:12;36.83;;;20.00;;
21800;SDS011;11062;51.164;16.924;2023-12-04T13:03:50;63.05;;;22.52;;
21800;SDS011;11062;51.164;16.924;2023-12-04T13:06:16;46.33;;;20.00;;
21800;SDS011;11062;51.164;16.924;2023-12-04T13:08:42;48.88;;;21.35;;
21800;SDS011;11062;51.164;16.924;2023-12-04T13:11:09;65.90;;;23.45;;
21800;SDS011;11062;51.164;16.924;2023-12-04T13:13:38;53.97;;;21.23;;
21800;SDS011;11062;51.164;16.924;2023-12-04T13:16:04;56.90;;;21.38;;
21800;SDS011;11062;51.164;16.924;2023-12-04T13:18:31;65.32;;;21.42;;
21800;SDS011;11062;51.164;16.924;2023-12-04T13:21:01;57.97;;;22.45;;
21800;SDS011;11062;51.164;16.924;2023-12-04T13:23:27;51.72;;;20.85;;
21800;SDS011;11062;51.164;16.924;2023-12-04T13:25:53;38.78;;;20.13;;
21800;SDS011;11062;51.164;16.924;2023-12-04T13:35:45;45.70;;;20.77;;
21800;SDS011;11062;51.164;16.924;2023-12-04T13:39:13;54.22;;;21.90;;
21800;SDS011;11062;51.164;16.924;2023-12-04T13:42:32;56.85;;;22.80;;
21800;SDS011;11062;51.164;16.924;2023-12-04T13:46:08;57.05;;;22.33;;
21800;SDS011;11062;51.164;16.924;2023-12-04T13:49:18;47.40;;;21.38;;
21800;SDS011;11062;51.164;16.924;2023-12-04T13:51:51;63.45;;;21.83;;
21800;SDS011;11062;51.164;16.924;2023-12-04T13:54:41;60.10;;;21.98;;
21800;SDS011;11062;51.164;16.924;2023-12-04T13:57:48;55.97;;;22.42;;
21800;SDS011;11062;51.164;16.924;2023-12-04T14:01:04;57.30;;;22.48;;
21800;SDS011;11062;51.164;16.924;2023-12-04T14:03:53;45.17;;;21.92;;
21800;SDS011;11062;51.164;16.924;2023-12-04T14:06:31;63.03;;;24.02;;
21800;SDS011;11062;51.164;16.924;2023-12-04T14:09:24;70.35;;;24.60;;
21800;SDS011;11062;51.164;16.924;2023-12-04T14:12:10;53.60;;;24.38;;
21800;SDS011;11062;51.164;16.924;2023-12-04T14:15:45;61.75;;;24.88;;
21800;SDS011;11062;51.164;16.924;2023-12-04T14:18:50;78.60;;;26.85;;
21800;SDS011;11062;51.164;16.924;2023-12-04T14:22:04;58.40;;;25.80;;
21800;SDS011;11062;51.164;16.924;2023-12-04T14:25:01;71.38;;;27.10;;
21800;SDS011;11062;51.164;16.924;2023-12-04T14:28:02;61.47;;;26.33;;
21800;SDS011;11062;51.164;16.924;2023-12-04T14:30:45;65.43;;;27.15;;
21800;SDS011;11062;51.164;16.924;2023-12-04T14:33:35;72.38;;;26.77;;
21800;SDS011;11062;51.164;16.924;2023-12-04T14:36:06;64.07;;;26.08;;
21800;SDS011;11062;51.164;16.924;2023-12-04T14:38:33;59.17;;;26.67;;
21800;SDS011;11062;51.164;16.924;2023-12-04T14:41:03;66.90;;;27.55;;
21800;SDS011;11062;51.164;16.924;2023-12-04T14:43:29;60.45;;;25.88;;
21800;SDS011;11062;51.164;16.924;2023-12-04T14:45:55;82.35;;;28.60;;
21800;SDS011;11062;51.164;16.924;2023-12-04T14:48:29;61.78;;;27.60;;
21800;SDS011;11062;51.164;16.924;2023-12-04T14:50:55;59.83;;;26.83;;
21800;SDS011;11062;51.164;16.924;2023-12-04T14:53:21;74.40;;;29.20;;
21800;SDS011;11062;51.164;16.924;2023-12-04T14:55:53;67.28;;;25.77;;
21800;SDS011;11062;51.164;16.924;2023-12-04T14:58:40;59.50;;;26.02;;
21800;SDS011;11062;51.164;16.924;2023-12-04T15:01:12;64.38;;;28.58;;
21800;SDS011;11062;51.164;16.924;2023-12-04T15:03:49;62.33;;;27.17;;